createdAt,value
2018-06-07T00:02:10.838Z,78.01
2018-06-07T00:05:15.091Z,77.70
2018-06-07T00:08:19.502Z,78.22
2018-06-07T00:11:23.817Z,77.97
2018-06-07T00:14:28.105Z,78.25
2018-06-07T00:17:32.441Z,78.34
2018-06-07T00:20:36.719Z,78.93
2018-06-07T00:23:41.111Z,78.58
2018-06-07T00:26:45.423Z,78.59
2018-06-07T00:29:49.718Z,78.52
2018-06-07T00:32:54.030Z,78.03
2018-06-07T00:35:58.310Z,78.21
2018-06-07T00:39:02.681Z,78.09
2018-06-07T00:42:06.954Z,77.95
2018-06-07T00:45:11.340Z,77.65
2018-06-07T00:48:15.640Z,77.48
2018-06-07T00:51:19.948Z,77.24
2018-06-07T00:54:24.273Z,77.67
2018-06-07T00:57:28.414Z,77.21
2018-06-07T01:00:32.838Z,77.20
2018-06-07T01:03:37.128Z,76.96
2018-06-07T01:06:41.443Z,76.37
2018-06-07T01:09:45.748Z,76.27
2018-06-07T01:12:50.019Z,75.95
2018-06-07T01:15:54.260Z,75.14
2018-06-07T01:18:58.607Z,75.29
2018-06-07T01:22:02.944Z,75.31
2018-06-07T01:25:07.272Z,74.57
2018-06-07T01:28:11.539Z,74.46
2018-06-07T01:31:21.041Z,74.58
2018-06-07T01:34:25.286Z,74.34
2018-06-07T01:37:29.636Z,74.11
2018-06-07T01:40:33.892Z,74.22
2018-06-07T01:43:38.171Z,74.18
2018-06-07T01:46:42.494Z,73.94
2018-06-07T01:49:46.829Z,73.85
2018-06-07T01:52:51.245Z,73.87
2018-06-07T01:55:55.568Z,73.27
2018-06-07T01:58:59.889Z,73.04
2018-06-07T02:02:04.217Z,72.37
2018-06-07T02:05:09.440Z,72.76
2018-06-07T02:08:13.869Z,72.75
2018-06-07T02:11:18.186Z,72.77
2018-06-07T02:14:22.497Z,71.81
2018-06-07T02:17:26.820Z,72.45
2018-06-07T02:20:31.144Z,72.18
2018-06-07T02:23:35.411Z,71.68
2018-06-07T02:26:39.800Z,72.20
2018-06-07T02:29:44.107Z,72.01
2018-06-07T02:32:48.416Z,72.18
2018-06-07T02:35:52.670Z,72.40
2018-06-07T02:38:56.957Z,72.34
2018-06-07T02:42:01.193Z,72.65
2018-06-07T02:45:05.333Z,72.84
2018-06-07T02:48:09.645Z,72.35
2018-06-07T02:51:13.922Z,72.64
2018-06-07T02:54:18.239Z,73.11
2018-06-07T02:57:22.569Z,73.51
2018-06-07T03:00:26.676Z,73.49
2018-06-07T03:03:30.916Z,73.43
2018-06-07T03:06:35.315Z,73.85
2018-06-07T03:09:39.628Z,73.93
2018-06-07T03:12:43.954Z,73.80
2018-06-07T03:15:48.273Z,73.56
2018-06-07T03:18:52.607Z,71.93
2018-06-07T03:21:56.628Z,71.00
2018-06-07T03:25:01.030Z,71.23
2018-06-07T03:28:05.344Z,70.36
2018-06-07T03:31:09.706Z,69.75
2018-06-07T03:34:13.959Z,68.77
2018-06-07T03:37:18.215Z,68.01
2018-06-07T03:40:22.515Z,66.62
2018-06-07T03:43:26.824Z,65.98
2018-06-07T03:46:31.164Z,64.90
2018-06-07T03:49:35.477Z,64.11
2018-06-07T03:52:39.810Z,63.88
2018-06-07T03:55:44.120Z,64.15
2018-06-07T03:58:48.432Z,64.45
2018-06-07T04:01:52.750Z,64.26
2018-06-07T04:04:57.069Z,64.30
2018-06-07T04:08:01.310Z,64.53
2018-06-07T04:11:05.610Z,64.46
2018-06-07T04:14:09.924Z,65.08
2018-06-07T04:17:14.236Z,66.11
2018-06-07T04:20:18.524Z,68.10
2018-06-07T04:23:22.880Z,68.42
2018-06-07T04:26:27.206Z,68.25
2018-06-07T04:29:31.536Z,68.33
2018-06-07T04:32:35.808Z,68.98
2018-06-07T04:35:40.170Z,68.94
2018-06-07T04:38:44.472Z,68.26
2018-06-07T04:41:48.804Z,68.46
2018-06-07T04:44:53.116Z,67.87
2018-06-07T04:47:57.446Z,67.83
2018-06-07T04:51:01.754Z,67.04
2018-06-07T04:54:06.281Z,66.88
2018-06-07T04:57:10.611Z,66.65
2018-06-07T05:00:14.912Z,65.75
2018-06-07T05:03:19.638Z,65.54
2018-06-07T05:06:23.964Z,64.45
2018-06-07T05:09:28.217Z,64.97
2018-06-07T05:12:32.492Z,64.94
2018-06-07T05:15:36.754Z,64.42
2018-06-07T05:18:41.009Z,65.02
2018-06-07T05:21:45.312Z,64.22
2018-06-07T05:24:49.738Z,63.78
2018-06-07T05:27:53.757Z,64.00
2018-06-07T05:30:58.005Z,64.00
2018-06-07T05:34:02.349Z,63.73
2018-06-07T05:37:06.645Z,63.71
2018-06-07T05:40:10.995Z,63.66
2018-06-07T05:43:15.329Z,63.06
2018-06-07T05:46:19.697Z,61.59
2018-06-07T05:49:24.025Z,61.25
2018-06-07T05:52:28.340Z,60.92
2018-06-07T05:55:32.629Z,60.24
2018-06-07T05:58:36.909Z,59.29
2018-06-07T06:01:41.230Z,58.24
2018-06-07T06:04:45.535Z,58.13
2018-06-07T06:07:49.788Z,57.11
2018-06-07T06:10:54.397Z,54.22
2018-06-07T06:13:58.696Z,54.61
2018-06-07T06:17:03.240Z,53.59
2018-06-07T06:20:09.063Z,53.19
2018-06-07T06:23:13.376Z,53.10
2018-06-07T06:26:17.940Z,52.95
2018-06-07T06:29:22.171Z,52.03
2018-06-07T06:32:26.455Z,51.90
2018-06-07T06:35:30.782Z,52.02
2018-06-07T06:38:36.920Z,51.73
2018-06-07T06:41:41.240Z,50.95
2018-06-07T06:44:45.500Z,49.56
2018-06-07T06:47:49.778Z,50.36
2018-06-07T06:50:54.108Z,50.24
2018-06-07T06:53:58.421Z,51.00
2018-06-07T06:57:02.791Z,47.90
2018-06-07T07:00:07.038Z,48.22
2018-06-07T07:03:11.388Z,47.56
2018-06-07T07:06:15.698Z,49.66
2018-06-07T07:09:20.072Z,49.46
2018-06-07T07:12:24.324Z,48.87
2018-06-07T07:15:28.696Z,48.34
2018-06-07T07:18:32.996Z,49.59
2018-06-07T07:21:37.288Z,49.70
2018-06-07T07:24:41.715Z,46.38
2018-06-07T07:27:46.029Z,48.28
2018-06-07T07:30:50.506Z,49.42
2018-06-07T07:33:54.888Z,50.85
2018-06-07T07:36:59.200Z,51.53
2018-06-07T07:40:03.495Z,52.29
2018-06-07T07:43:07.838Z,52.43
2018-06-07T07:46:12.156Z,52.22
2018-06-07T07:49:16.441Z,53.12
2018-06-07T07:52:20.826Z,53.06
2018-06-07T07:55:25.117Z,53.66
2018-06-07T07:58:29.452Z,52.94
2018-06-07T08:01:33.729Z,52.92
2018-06-07T08:04:37.993Z,52.44
2018-06-07T08:07:42.280Z,52.77
2018-06-07T08:10:46.614Z,51.90
2018-06-07T08:13:51.004Z,52.54
2018-06-07T08:16:55.338Z,51.57
2018-06-07T08:19:59.665Z,51.69
2018-06-07T08:23:03.999Z,53.45
2018-06-07T08:26:08.293Z,53.55
2018-06-07T08:29:12.618Z,52.99
2018-06-07T08:32:16.935Z,54.72
2018-06-07T08:35:21.244Z,54.46
2018-06-07T08:38:25.579Z,53.53
2018-06-07T08:41:29.852Z,53.95
2018-06-07T08:44:34.114Z,53.46
2018-06-07T08:47:38.257Z,54.35
2018-06-07T08:50:42.531Z,55.27
2018-06-07T08:53:46.787Z,55.38
2018-06-07T08:56:51.095Z,54.70
2018-06-07T08:59:55.747Z,55.88
2018-06-07T09:03:00.033Z,56.18
2018-06-07T09:06:04.478Z,55.81
2018-06-07T09:09:08.786Z,56.88
2018-06-07T09:12:13.113Z,57.79
2018-06-07T09:15:17.407Z,54.22
2018-06-07T09:18:21.721Z,56.19
2018-06-07T09:21:26.052Z,56.69
2018-06-07T09:24:30.389Z,55.63
2018-06-07T09:27:34.416Z,56.45
2018-06-07T09:30:38.815Z,56.63
2018-06-07T09:33:43.179Z,56.38
2018-06-07T09:36:47.538Z,56.41
2018-06-07T09:39:51.848Z,56.43
2018-06-07T09:42:56.168Z,56.65
2018-06-07T09:46:00.510Z,56.16
2018-06-07T09:49:04.828Z,57.65
2018-06-07T09:52:09.139Z,57.98
2018-06-07T09:55:13.927Z,58.16
2018-06-07T09:58:18.234Z,58.03
2018-06-07T10:01:22.482Z,58.25
2018-06-07T10:04:26.818Z,57.01
2018-06-07T10:07:31.186Z,57.99
2018-06-07T10:10:35.570Z,58.06
2018-06-07T10:13:39.848Z,59.07
2018-06-07T10:16:44.203Z,58.37
2018-06-07T10:19:48.530Z,57.60
2018-06-07T10:22:52.841Z,57.20
2018-06-07T10:25:57.163Z,58.61
2018-06-07T10:29:01.485Z,57.39
2018-06-07T10:32:05.796Z,57.75
2018-06-07T10:35:10.117Z,56.64
2018-06-07T10:38:14.442Z,58.87
2018-06-07T10:41:18.783Z,59.63
2018-06-07T10:44:23.166Z,60.47
2018-06-07T10:47:27.495Z,59.89
2018-06-07T10:50:31.837Z,60.98
2018-06-07T10:53:36.123Z,60.27
2018-06-07T10:56:40.447Z,59.48
2018-06-07T10:59:44.790Z,58.83
2018-06-07T11:02:49.183Z,58.97
2018-06-07T11:05:53.555Z,58.46
2018-06-07T11:08:57.841Z,57.55
2018-06-07T11:12:02.157Z,57.41
2018-06-07T11:15:06.465Z,56.28
2018-06-07T11:18:10.733Z,56.87
2018-06-07T11:21:14.984Z,54.76
2018-06-07T11:24:19.237Z,55.87
2018-06-07T11:27:23.580Z,55.39
2018-06-07T11:30:27.875Z,56.12
2018-06-07T11:33:32.212Z,57.10
2018-06-07T11:36:36.492Z,56.46
2018-06-07T11:39:40.807Z,56.62
2018-06-07T11:42:45.256Z,55.54
2018-06-07T11:45:49.549Z,56.40
2018-06-07T11:48:53.907Z,55.94
2018-06-07T11:51:58.219Z,55.50
2018-06-07T11:55:02.534Z,55.93
2018-06-07T11:58:06.863Z,57.30
2018-06-07T12:01:11.260Z,56.44
2018-06-07T12:04:15.579Z,57.86
2018-06-07T12:07:19.885Z,58.40
2018-06-07T12:10:24.212Z,56.97
2018-06-07T12:13:28.483Z,57.87
2018-06-07T12:16:32.745Z,57.25
2018-06-07T12:19:37.073Z,57.54
2018-06-07T12:22:41.384Z,56.23
2018-06-07T12:25:45.734Z,57.51
2018-06-07T12:28:50.126Z,56.24
2018-06-07T12:31:54.450Z,56.09
2018-06-07T12:34:58.707Z,55.81
2018-06-07T12:38:02.986Z,56.35
2018-06-07T12:41:07.291Z,55.30
2018-06-07T12:44:11.755Z,57.05
2018-06-07T12:47:16.077Z,56.34
2018-06-07T12:50:20.332Z,56.50
2018-06-07T12:53:24.608Z,55.91
2018-06-07T12:56:28.862Z,57.23
2018-06-07T12:59:33.242Z,56.58
2018-06-07T13:02:37.581Z,55.59
2018-06-07T13:05:41.891Z,55.77
2018-06-07T13:08:46.155Z,55.85
2018-06-07T13:11:50.421Z,55.89
2018-06-07T13:14:54.730Z,54.32
2018-06-07T13:17:59.061Z,54.59
2018-06-07T13:21:03.329Z,53.54
2018-06-07T13:24:07.662Z,53.75
2018-06-07T13:27:11.823Z,52.81
2018-06-07T13:30:16.082Z,53.24
2018-06-07T13:33:20.427Z,53.83
2018-06-07T13:36:24.712Z,53.08
2018-06-07T13:39:28.952Z,54.97
2018-06-07T13:42:33.246Z,53.26
2018-06-07T13:45:37.597Z,53.43
2018-06-07T13:48:41.947Z,53.85
2018-06-07T13:51:46.349Z,54.15
2018-06-07T13:54:50.648Z,52.62
2018-06-07T13:57:55.005Z,53.38
2018-06-07T14:00:59.296Z,53.70
2018-06-07T14:04:03.630Z,53.94
2018-06-07T14:07:08.110Z,53.49
2018-06-07T14:10:12.389Z,53.78
2018-06-07T14:13:16.689Z,54.25
2018-06-07T14:16:21.116Z,53.32
2018-06-07T14:19:25.426Z,53.40
2018-06-07T14:22:29.746Z,53.29
2018-06-07T14:25:34.049Z,52.38
2018-06-07T14:28:38.369Z,53.25
2018-06-07T14:31:42.680Z,52.51
2018-06-07T14:34:47.142Z,52.19
2018-06-07T14:37:51.440Z,52.77
2018-06-07T14:40:55.744Z,52.65
2018-06-07T14:44:00.075Z,52.06
2018-06-07T14:47:04.504Z,51.54
2018-06-07T14:50:08.858Z,49.88
2018-06-07T14:53:13.252Z,49.13
2018-06-07T14:56:17.655Z,51.14
2018-06-07T14:59:21.990Z,49.60
2018-06-07T15:02:26.233Z,50.04
2018-06-07T15:05:30.525Z,49.46
2018-06-07T15:08:34.844Z,49.36
2018-06-07T15:11:39.162Z,48.65
2018-06-07T15:14:43.428Z,47.65
2018-06-07T15:17:47.787Z,48.21
2018-06-07T15:20:52.139Z,45.75
2018-06-07T15:23:56.416Z,44.92
2018-06-07T15:27:00.765Z,43.89
2018-06-07T15:30:05.176Z,43.59
2018-06-07T15:33:09.505Z,43.99
2018-06-07T15:36:14.045Z,42.62
2018-06-07T15:39:19.241Z,42.48
2018-06-07T15:42:23.492Z,42.83
2018-06-07T15:45:29.128Z,42.15
2018-06-07T15:48:33.424Z,42.44
2018-06-07T15:51:37.758Z,42.26
2018-06-07T15:54:42.069Z,41.94
2018-06-07T15:57:46.373Z,42.39
2018-06-07T16:00:51.780Z,42.29
2018-06-07T16:03:56.108Z,42.74
2018-06-07T16:07:00.434Z,43.88
2018-06-07T16:10:04.825Z,43.12
2018-06-07T16:13:09.149Z,41.85
2018-06-07T16:16:13.440Z,42.56
2018-06-07T16:19:17.765Z,41.56
2018-06-07T16:22:22.105Z,40.90
2018-06-07T16:25:26.404Z,41.02
2018-06-07T16:28:30.711Z,41.79
2018-06-07T16:31:35.029Z,41.25
2018-06-07T16:34:39.356Z,39.95
2018-06-07T16:37:43.645Z,39.13
2018-06-07T16:40:47.984Z,39.18
2018-06-07T16:43:52.439Z,40.49
2018-06-07T16:46:56.738Z,41.13
2018-06-07T16:50:01.189Z,41.10
2018-06-07T16:53:05.465Z,41.50
2018-06-07T16:56:09.733Z,41.55
2018-06-07T16:59:14.028Z,40.55
2018-06-07T17:02:18.397Z,40.69
2018-06-07T17:05:22.780Z,40.64
2018-06-07T17:08:27.026Z,39.94
2018-06-07T17:11:31.434Z,40.58
2018-06-07T17:14:35.829Z,41.94
2018-06-07T17:17:40.238Z,44.43
2018-06-07T17:20:44.480Z,45.89
2018-06-07T17:23:48.884Z,48.19
2018-06-07T17:26:53.154Z,49.11
2018-06-07T17:29:57.507Z,50.12
2018-06-07T17:33:01.848Z,50.50
2018-06-07T17:36:06.210Z,50.80
2018-06-07T17:39:10.602Z,51.34
2018-06-07T17:42:15.005Z,51.80
2018-06-07T17:45:19.309Z,51.98
2018-06-07T17:48:23.722Z,53.12
2018-06-07T17:51:28.181Z,54.00
2018-06-07T17:54:32.584Z,53.31
2018-06-07T17:57:36.869Z,53.98
2018-06-07T18:00:41.135Z,54.57
2018-06-07T18:03:45.453Z,54.51
2018-06-07T18:06:49.886Z,54.13
2018-06-07T18:09:54.197Z,54.23
2018-06-07T18:12:58.557Z,54.97
2018-06-07T18:16:02.931Z,54.66
2018-06-07T18:19:07.229Z,55.63
2018-06-07T18:22:11.578Z,54.25
2018-06-07T18:25:15.989Z,54.68
2018-06-07T18:28:20.487Z,55.77
2018-06-07T18:31:24.912Z,56.36
2018-06-07T18:34:29.249Z,58.05
2018-06-07T18:37:33.563Z,58.08
2018-06-07T18:40:37.883Z,58.68
2018-06-07T18:43:42.207Z,58.43
2018-06-07T18:46:46.533Z,58.59
2018-06-07T18:49:50.981Z,58.37
2018-06-07T18:52:55.377Z,58.69
2018-06-07T18:55:59.862Z,60.13
2018-06-07T18:59:04.543Z,60.58
2018-06-07T19:02:08.818Z,61.63
2018-06-07T19:05:13.172Z,62.09
2018-06-07T19:08:17.594Z,61.94
2018-06-07T19:11:21.974Z,62.06
2018-06-07T19:14:31.530Z,62.02
2018-06-07T19:17:35.992Z,62.34
2018-06-07T19:20:45.520Z,62.71
2018-06-07T19:23:49.816Z,62.50
2018-06-07T19:26:59.318Z,63.44
2018-06-07T19:30:03.887Z,62.72
2018-06-07T19:33:13.572Z,63.66
2018-06-07T19:36:17.869Z,64.57
2018-06-07T19:39:27.402Z,64.47
2018-06-07T19:42:31.742Z,62.60
2018-06-07T19:45:36.024Z,63.03
2018-06-07T19:48:40.352Z,64.43
2018-06-07T19:51:44.659Z,66.33
2018-06-07T19:54:49.000Z,66.38
2018-06-07T19:57:54.049Z,67.28
2018-06-07T20:00:58.982Z,68.41
2018-06-07T20:04:03.803Z,68.44
2018-06-07T20:07:08.310Z,68.82
2018-06-07T20:10:12.736Z,69.10
2018-06-07T20:13:17.033Z,69.61
2018-06-07T20:16:21.360Z,70.49
2018-06-07T20:19:25.691Z,70.25
2018-06-07T20:22:30.117Z,70.06
2018-06-07T20:25:34.438Z,70.20
2018-06-07T20:28:38.758Z,71.65
2018-06-07T20:31:43.078Z,72.40
2018-06-07T20:34:47.592Z,72.31
2018-06-07T20:37:52.236Z,73.52
2018-06-07T20:40:56.544Z,73.32
2018-06-07T20:44:00.660Z,74.01
2018-06-07T20:47:05.153Z,73.69
2018-06-07T20:50:09.605Z,73.95
2018-06-07T20:53:13.908Z,74.54
2018-06-07T20:56:18.258Z,74.56
2018-06-07T20:59:22.516Z,75.45
2018-06-07T21:02:26.922Z,75.86
2018-06-07T21:05:31.282Z,76.85
2018-06-07T21:08:35.619Z,77.01
2018-06-07T21:11:40.024Z,77.33
2018-06-07T21:14:44.473Z,78.40
2018-06-07T21:17:48.778Z,77.92
2018-06-07T21:20:53.087Z,78.72
2018-06-07T21:23:57.400Z,78.21
2018-06-07T21:27:02.190Z,78.15
2018-06-07T21:30:06.920Z,79.13
2018-06-07T21:33:11.225Z,79.35
2018-06-07T21:36:15.763Z,80.51
2018-06-07T21:39:20.026Z,80.83
2018-06-07T21:42:24.669Z,81.04
2018-06-07T21:45:28.964Z,80.88
2018-06-07T21:48:33.265Z,81.79
2018-06-07T21:51:37.614Z,81.37
2018-06-07T21:54:41.923Z,81.70
2018-06-07T21:57:46.206Z,82.96
2018-06-07T22:00:50.597Z,83.80
2018-06-07T22:03:54.887Z,84.86
2018-06-07T22:06:59.206Z,84.13
2018-06-07T22:10:03.555Z,84.67
2018-06-07T22:13:07.964Z,84.20
2018-06-07T22:16:12.265Z,84.44
2018-06-07T22:19:16.581Z,85.66
2018-06-07T22:22:20.903Z,85.63
2018-06-07T22:25:25.237Z,86.31
2018-06-07T22:28:29.384Z,85.40
2018-06-07T22:31:33.754Z,85.49
2018-06-07T22:34:38.090Z,85.83
2018-06-07T22:37:42.432Z,86.48
2018-06-07T22:40:46.723Z,87.11
2018-06-07T22:43:51.053Z,87.59
2018-06-07T22:46:55.379Z,88.42
2018-06-07T22:49:59.672Z,87.48
2018-06-07T22:53:04.031Z,87.07
2018-06-07T22:56:08.317Z,86.67
2018-06-07T22:59:12.628Z,86.63
2018-06-07T23:02:16.957Z,86.68
2018-06-07T23:05:21.294Z,86.91
2018-06-07T23:08:25.547Z,87.49
2018-06-07T23:11:29.930Z,87.61
2018-06-07T23:14:34.044Z,87.36
2018-06-07T23:17:38.340Z,87.82
2018-06-07T23:20:42.660Z,87.74
2018-06-07T23:23:47.011Z,88.20
2018-06-07T23:26:51.275Z,88.63
2018-06-07T23:29:55.518Z,88.89
2018-06-07T23:32:59.833Z,88.71
2018-06-07T23:36:04.195Z,89.62
2018-06-07T23:39:09.889Z,89.73
2018-06-07T23:42:14.274Z,89.72
2018-06-07T23:45:18.626Z,89.85
2018-06-07T23:48:23.084Z,89.73
2018-06-07T23:51:27.390Z,89.53
2018-06-07T23:54:31.665Z,87.90
2018-06-07T23:57:38.028Z,88.10
